Airport Name : Trat

Other Name : Trat

ICAO : VTBO

IATA :

FAA :

Latitude : 12.275269

Longitude : 102.319917

Country : Thailand

Local Date and Time : 30 May 2024 14:19

 

TAF (Terminal Aerodrome Forecast)

TAF VTBO 300500Z 3006/3106 24010KT 8000 FEW020 SCT100 TEMPO 3013/3018 VRB20KT 3000 TSRA FEW018CB SCT030 BKN100 TEMPO 3100/3106 VRB20KT 3000 TSRA FEW018CB SCT030 BKN100

 

METAR (METeorological Aerodrome Report)

VTBO 300700Z 25006KT 9999 FEW018 SCT100 31/26 Q1007

VTBO 300600Z 24014KT 9000 VCSH FEW018CB SCT100 32/27 Q1007

VTBO 300500Z 22010KT 9000 VCSH FEW018CB SCT020 33/27 Q1008

VTBO 300400Z 24014KT 9000 FEW018 SCT100 33/27 Q1008